WAT1165 LUKK-LROP
Flight info
| Callsign | WAT1165 |
|---|---|
| Flight time | 0h 37m |
| Altitude | 34000 |
| Route | LIPTA T34 KODRU DCT DENAK |
| Aircraft | MD11/H-SDE1E2E3FGHIJ2J3J4J5M1RWXY/LB1D1 |
Departure
| Time | 2026-05-05 19:34 |
|---|---|
| Airport | Chişinău International Airport (LUKK) |
Arrival
| Time | 2026-05-05 20:11 |
|---|---|
| Airport | Bucharest Henri Coandă International Airport (LROP) |
| Time | Latitude | Longitude | Altitude | Speed | Heading |
|---|---|---|---|---|---|
| 2026-05-05 19:11 | 46.93431 | 28.92908 | 363 ft | 0 kts | 186° |
| 2026-05-05 19:22 | 46.93435 | 28.92909 | 363 ft | 3 kts | 184° |
| 2026-05-05 19:22 | 46.93449 | 28.92911 | 356 ft | 4 kts | 197° |
| 2026-05-05 19:22 | 46.93467 | 28.92922 | 365 ft | 4 kts | 243° |
| 2026-05-05 19:23 | 46.93470 | 28.92952 | 362 ft | 4 kts | 280° |
| 2026-05-05 19:23 | 46.93467 | 28.92976 | 355 ft | 1 kts | 279° |
| 2026-05-05 19:23 | 46.93467 | 28.92977 | 355 ft | 0 kts | 279° |
| 2026-05-05 19:27 | 46.93467 | 28.92976 | 355 ft | 0 kts | 279° |
| 2026-05-05 19:28 | 46.93468 | 28.92968 | 358 ft | 2 kts | 279° |
| 2026-05-05 19:28 | 46.93471 | 28.92942 | 360 ft | 4 kts | 279° |
| 2026-05-05 19:28 | 46.93477 | 28.92890 | 359 ft | 7 kts | 279° |
| 2026-05-05 19:28 | 46.93483 | 28.92808 | 365 ft | 9 kts | 263° |
| 2026-05-05 19:29 | 46.93443 | 28.92760 | 363 ft | 9 kts | 198° |
| 2026-05-05 19:29 | 46.93367 | 28.92744 | 361 ft | 13 kts | 187° |
| 2026-05-05 19:29 | 46.93266 | 28.92726 | 363 ft | 15 kts | 187° |
| 2026-05-05 19:29 | 46.93222 | 28.92665 | 366 ft | 11 kts | 251° |
| 2026-05-05 19:30 | 46.93226 | 28.92524 | 370 ft | 16 kts | 277° |
| 2026-05-05 19:30 | 46.93242 | 28.92340 | 372 ft | 20 kts | 277° |
| 2026-05-05 19:30 | 46.93256 | 28.92157 | 377 ft | 16 kts | 276° |
| 2026-05-05 19:30 | 46.93225 | 28.92039 | 379 ft | 12 kts | 214° |
| 2026-05-05 19:31 | 46.93145 | 28.92000 | 376 ft | 13 kts | 195° |
| 2026-05-05 19:31 | 46.93058 | 28.91986 | 379 ft | 12 kts | 179° |
| 2026-05-05 19:31 | 46.92984 | 28.91992 | 383 ft | 8 kts | 179° |
| 2026-05-05 19:31 | 46.92934 | 28.91993 | 385 ft | 6 kts | 179° |
| 2026-05-05 19:32 | 46.92899 | 28.91994 | 387 ft | 6 kts | 178° |
| 2026-05-05 19:32 | 46.92846 | 28.91996 | 389 ft | 8 kts | 178° |
| 2026-05-05 19:32 | 46.92793 | 28.91998 | 391 ft | 8 kts | 178° |
| 2026-05-05 19:32 | 46.92756 | 28.92048 | 390 ft | 8 kts | 100° |
| 2026-05-05 19:33 | 46.92759 | 28.92148 | 386 ft | 12 kts | 88° |
| 2026-05-05 19:33 | 46.92765 | 28.92404 | 380 ft | 51 kts | 88° |
| 2026-05-05 19:33 | 46.92784 | 28.93377 | 351 ft | 138 kts | 88° |
| 2026-05-05 19:33 | 46.92828 | 28.95057 | 573 ft | 174 kts | 90° |
| 2026-05-05 19:34 | 46.92888 | 28.96857 | 1392 ft | 181 kts | 90° |
| 2026-05-05 19:34 | 46.92936 | 28.98728 | 2171 ft | 187 kts | 91° |
| 2026-05-05 19:34 | 46.92972 | 29.00672 | 2645 ft | 196 kts | 90° |
| 2026-05-05 19:35 | 46.92850 | 29.04585 | 3783 ft | 198 kts | 99° |
| 2026-05-05 19:35 | 46.92399 | 29.06620 | 3868 ft | 227 kts | 117° |
| 2026-05-05 19:35 | 46.91331 | 29.08471 | 4058 ft | 254 kts | 145° |
| 2026-05-05 19:35 | 46.89635 | 29.09491 | 4460 ft | 275 kts | 174° |
| 2026-05-05 19:36 | 46.87771 | 29.09085 | 5400 ft | 275 kts | 204° |
| 2026-05-05 19:36 | 46.86205 | 29.07448 | 6130 ft | 283 kts | 229° |
| 2026-05-05 19:36 | 46.85065 | 29.05088 | 6922 ft | 286 kts | 238° |
| 2026-05-05 19:36 | 46.83975 | 29.02676 | 7661 ft | 293 kts | 237° |
| 2026-05-05 19:37 | 46.82804 | 29.00136 | 8402 ft | 300 kts | 237° |
| 2026-05-05 19:37 | 46.81635 | 28.97620 | 9138 ft | 306 kts | 236° |
| 2026-05-05 19:37 | 46.80423 | 28.95024 | 9861 ft | 313 kts | 236° |
| 2026-05-05 19:37 | 46.79170 | 28.92345 | 10234 ft | 331 kts | 236° |
| 2026-05-05 19:38 | 46.77824 | 28.89471 | 10372 ft | 355 kts | 236° |
| 2026-05-05 19:38 | 46.76386 | 28.86404 | 10500 ft | 377 kts | 236° |
| 2026-05-05 19:38 | 46.74881 | 28.83203 | 10921 ft | 386 kts | 236° |
| 2026-05-05 19:38 | 46.73363 | 28.79980 | 11568 ft | 388 kts | 236° |
| 2026-05-05 19:39 | 46.72327 | 28.77782 | 11976 ft | 390 kts | 236° |
| 2026-05-05 19:39 | 46.70291 | 28.73467 | 12925 ft | 391 kts | 236° |
| 2026-05-05 19:39 | 46.69248 | 28.71259 | 13335 ft | 393 kts | 236° |
| 2026-05-05 19:39 | 46.67711 | 28.68009 | 13924 ft | 396 kts | 236° |
| 2026-05-05 19:40 | 46.66143 | 28.64696 | 14455 ft | 399 kts | 236° |
| 2026-05-05 19:40 | 46.64560 | 28.61355 | 14979 ft | 403 kts | 236° |
| 2026-05-05 19:40 | 46.62848 | 28.58118 | 15457 ft | 406 kts | 226° |
| 2026-05-05 19:40 | 46.60748 | 28.55351 | 15982 ft | 409 kts | 218° |
| 2026-05-05 19:41 | 46.58461 | 28.52863 | 16493 ft | 412 kts | 215° |
| 2026-05-05 19:41 | 46.56100 | 28.50464 | 17002 ft | 416 kts | 214° |
| 2026-05-05 19:41 | 46.53711 | 28.48064 | 17527 ft | 419 kts | 214° |
| 2026-05-05 19:41 | 46.51308 | 28.45627 | 18054 ft | 422 kts | 214° |
| 2026-05-05 19:42 | 46.48901 | 28.43158 | 18536 ft | 426 kts | 215° |
| 2026-05-05 19:42 | 46.46483 | 28.40654 | 18980 ft | 429 kts | 215° |
| 2026-05-05 19:42 | 46.44053 | 28.38126 | 19439 ft | 431 kts | 215° |
| 2026-05-05 19:42 | 46.41614 | 28.35582 | 19893 ft | 433 kts | 215° |
| 2026-05-05 19:43 | 46.39161 | 28.33024 | 20344 ft | 436 kts | 215° |
| 2026-05-05 19:43 | 46.36697 | 28.30456 | 20781 ft | 438 kts | 215° |
| 2026-05-05 19:43 | 46.34213 | 28.27875 | 21219 ft | 440 kts | 215° |
| 2026-05-05 19:43 | 46.31719 | 28.25290 | 21709 ft | 443 kts | 215° |
| 2026-05-05 19:44 | 46.29211 | 28.22690 | 22142 ft | 445 kts | 215° |
| 2026-05-05 19:44 | 46.26685 | 28.20073 | 22590 ft | 448 kts | 215° |
| 2026-05-05 19:44 | 46.24143 | 28.17439 | 23047 ft | 451 kts | 215° |
| 2026-05-05 19:44 | 46.21590 | 28.14797 | 23509 ft | 453 kts | 215° |
| 2026-05-05 19:45 | 46.19023 | 28.12126 | 23892 ft | 456 kts | 217° |
| 2026-05-05 19:45 | 46.16582 | 28.09189 | 24281 ft | 458 kts | 222° |
| 2026-05-05 19:45 | 46.14279 | 28.05992 | 24662 ft | 461 kts | 225° |
| 2026-05-05 19:45 | 46.12035 | 28.02671 | 25052 ft | 463 kts | 226° |
| 2026-05-05 19:46 | 46.09806 | 27.99308 | 25453 ft | 465 kts | 226° |
| 2026-05-05 19:46 | 46.07562 | 27.95932 | 25855 ft | 468 kts | 226° |
| 2026-05-05 19:46 | 46.05296 | 27.92554 | 26248 ft | 470 kts | 226° |
| 2026-05-05 19:46 | 46.03010 | 27.89176 | 26659 ft | 472 kts | 226° |
| 2026-05-05 19:47 | 46.00700 | 27.85786 | 27134 ft | 475 kts | 226° |
| 2026-05-05 19:47 | 45.98376 | 27.82390 | 27616 ft | 477 kts | 226° |
| 2026-05-05 19:47 | 45.96037 | 27.78981 | 28105 ft | 480 kts | 226° |
| 2026-05-05 19:47 | 45.93685 | 27.75556 | 28549 ft | 483 kts | 226° |
| 2026-05-05 19:48 | 45.91319 | 27.72116 | 28999 ft | 485 kts | 226° |
| 2026-05-05 19:48 | 45.88937 | 27.68656 | 29446 ft | 488 kts | 226° |
| 2026-05-05 19:48 | 45.86545 | 27.65185 | 29869 ft | 491 kts | 226° |
| 2026-05-05 19:48 | 45.84137 | 27.61696 | 30243 ft | 493 kts | 226° |
| 2026-05-05 19:49 | 45.81714 | 27.58189 | 30584 ft | 495 kts | 226° |
| 2026-05-05 19:49 | 45.79290 | 27.54685 | 30962 ft | 495 kts | 226° |
| 2026-05-05 19:49 | 45.76868 | 27.51190 | 31401 ft | 494 kts | 226° |
| 2026-05-05 19:49 | 45.74453 | 27.47709 | 31828 ft | 492 kts | 226° |
| 2026-05-05 19:50 | 45.72038 | 27.44232 | 32247 ft | 491 kts | 226° |
| 2026-05-05 19:50 | 45.69635 | 27.40777 | 32645 ft | 490 kts | 226° |
| 2026-05-05 19:50 | 45.67232 | 27.37327 | 33035 ft | 489 kts | 226° |
| 2026-05-05 19:50 | 45.64873 | 27.33944 | 33430 ft | 487 kts | 226° |
| 2026-05-05 19:51 | 45.62479 | 27.30515 | 33848 ft | 486 kts | 226° |
| 2026-05-05 19:51 | 45.60084 | 27.27091 | 33985 ft | 488 kts | 226° |
| 2026-05-05 19:51 | 45.57698 | 27.23704 | 34011 ft | 490 kts | 226° |
| 2026-05-05 19:52 | 45.52854 | 27.16853 | 34017 ft | 490 kts | 226° |
| 2026-05-05 19:52 | 45.48017 | 27.09997 | 34018 ft | 490 kts | 226° |
| 2026-05-05 19:53 | 45.43183 | 27.03142 | 34023 ft | 490 kts | 226° |
| 2026-05-05 19:53 | 45.38347 | 26.96297 | 34023 ft | 490 kts | 226° |
| 2026-05-05 19:54 | 45.33511 | 26.89471 | 34023 ft | 492 kts | 226° |
| 2026-05-05 19:54 | 45.28653 | 26.82632 | 34024 ft | 492 kts | 226° |
| 2026-05-05 19:55 | 45.23784 | 26.75795 | 34035 ft | 493 kts | 226° |
| 2026-05-05 19:55 | 45.18906 | 26.68965 | 34014 ft | 492 kts | 226° |
| 2026-05-05 19:56 | 45.14033 | 26.62158 | 34026 ft | 491 kts | 226° |
| 2026-05-05 19:56 | 45.09174 | 26.55388 | 33810 ft | 486 kts | 226° |
| 2026-05-05 19:56 | 45.06727 | 26.52109 | 33597 ft | 486 kts | 223° |
| 2026-05-05 19:57 | 45.04072 | 26.49146 | 33107 ft | 488 kts | 215° |
| 2026-05-05 19:57 | 45.01106 | 26.46780 | 32515 ft | 491 kts | 205° |
| 2026-05-05 19:57 | 44.97875 | 26.45201 | 31898 ft | 493 kts | 194° |
| 2026-05-05 19:57 | 44.94477 | 26.44451 | 31260 ft | 495 kts | 183° |
| 2026-05-05 19:58 | 44.91045 | 26.44479 | 30651 ft | 493 kts | 175° |
| 2026-05-05 19:58 | 44.87650 | 26.44940 | 29997 ft | 488 kts | 172° |
| 2026-05-05 19:58 | 44.84307 | 26.45537 | 29288 ft | 481 kts | 173° |
| 2026-05-05 19:58 | 44.80974 | 26.45735 | 28596 ft | 477 kts | 183° |
| 2026-05-05 19:59 | 44.77724 | 26.45000 | 27932 ft | 472 kts | 197° |
| 2026-05-05 19:59 | 44.74620 | 26.43608 | 27039 ft | 463 kts | 200° |
| 2026-05-05 19:59 | 44.71707 | 26.41785 | 25786 ft | 456 kts | 212° |
| 2026-05-05 19:59 | 44.69244 | 26.39085 | 24661 ft | 445 kts | 227° |
| 2026-05-05 20:00 | 44.67415 | 26.35661 | 23557 ft | 435 kts | 243° |
| 2026-05-05 20:00 | 44.66308 | 26.31770 | 22291 ft | 424 kts | 259° |
| 2026-05-05 20:00 | 44.65972 | 26.27719 | 21134 ft | 413 kts | 273° |
| 2026-05-05 20:00 | 44.66117 | 26.23824 | 20879 ft | 384 kts | 276° |
| 2026-05-05 20:01 | 44.66258 | 26.20158 | 20303 ft | 370 kts | 274° |
| 2026-05-05 20:01 | 44.66280 | 26.16596 | 19672 ft | 360 kts | 271° |
| 2026-05-05 20:01 | 44.66193 | 26.13128 | 19064 ft | 351 kts | 269° |
| 2026-05-05 20:01 | 44.66031 | 26.09755 | 18432 ft | 342 kts | 268° |
| 2026-05-05 20:02 | 44.65829 | 26.06457 | 17521 ft | 338 kts | 267° |
| 2026-05-05 20:02 | 44.65605 | 26.03180 | 16549 ft | 337 kts | 267° |
| 2026-05-05 20:02 | 44.65371 | 25.99947 | 15603 ft | 337 kts | 267° |
| 2026-05-05 20:02 | 44.65125 | 25.96636 | 14662 ft | 336 kts | 267° |
| 2026-05-05 20:03 | 44.64882 | 25.93417 | 13757 ft | 336 kts | 267° |
| 2026-05-05 20:03 | 44.64634 | 25.90157 | 12744 ft | 335 kts | 267° |
| 2026-05-05 20:03 | 44.64384 | 25.86910 | 11785 ft | 334 kts | 267° |
| 2026-05-05 20:03 | 44.64135 | 25.83681 | 10845 ft | 331 kts | 267° |
| 2026-05-05 20:04 | 44.63885 | 25.80477 | 9920 ft | 328 kts | 267° |
| 2026-05-05 20:04 | 44.63634 | 25.77308 | 8929 ft | 325 kts | 266° |
| 2026-05-05 20:04 | 44.63340 | 25.74186 | 7959 ft | 322 kts | 260° |
| 2026-05-05 20:04 | 44.62446 | 25.71340 | 7005 ft | 322 kts | 233° |
| 2026-05-05 20:05 | 44.60683 | 25.69415 | 6186 ft | 329 kts | 204° |
| 2026-05-05 20:05 | 44.58496 | 25.68786 | 5703 ft | 317 kts | 180° |
| 2026-05-05 20:05 | 44.56404 | 25.69383 | 5284 ft | 297 kts | 155° |
| 2026-05-05 20:05 | 44.54828 | 25.70995 | 4858 ft | 270 kts | 129° |
| 2026-05-05 20:06 | 44.53997 | 25.73223 | 4470 ft | 253 kts | 102° |
| 2026-05-05 20:06 | 44.53934 | 25.75597 | 4183 ft | 239 kts | 83° |
| 2026-05-05 20:06 | 44.54156 | 25.77885 | 3939 ft | 237 kts | 81° |
| 2026-05-05 20:06 | 44.54378 | 25.80138 | 3699 ft | 227 kts | 83° |
| 2026-05-05 20:07 | 44.54551 | 25.82301 | 3429 ft | 225 kts | 84° |
| 2026-05-05 20:07 | 44.54722 | 25.84470 | 3196 ft | 223 kts | 83° |
| 2026-05-05 20:07 | 44.54889 | 25.86613 | 2981 ft | 219 kts | 84° |
| 2026-05-05 20:07 | 44.55039 | 25.88732 | 2742 ft | 216 kts | 85° |
| 2026-05-05 20:08 | 44.55177 | 25.90780 | 2472 ft | 204 kts | 85° |
| 2026-05-05 20:08 | 44.55316 | 25.92680 | 2196 ft | 188 kts | 85° |
| 2026-05-05 20:08 | 44.55447 | 25.94450 | 1912 ft | 177 kts | 87° |
| 2026-05-05 20:08 | 44.55571 | 25.96142 | 1734 ft | 175 kts | 86° |
| 2026-05-05 20:09 | 44.55715 | 25.97844 | 1557 ft | 177 kts | 86° |
| 2026-05-05 20:09 | 44.55843 | 25.99564 | 1391 ft | 178 kts | 86° |
| 2026-05-05 20:09 | 44.55976 | 26.01258 | 1157 ft | 175 kts | 85° |
| 2026-05-05 20:09 | 44.56107 | 26.02907 | 959 ft | 166 kts | 85° |
| 2026-05-05 20:10 | 44.56217 | 26.04522 | 751 ft | 167 kts | 84° |
| 2026-05-05 20:10 | 44.56336 | 26.06126 | 564 ft | 164 kts | 84° |
| 2026-05-05 20:10 | 44.56463 | 26.07709 | 371 ft | 161 kts | 83° |
| 2026-05-05 20:10 | 44.56572 | 26.09100 | 325 ft | 118 kts | 84° |
| 2026-05-05 20:11 | 44.56637 | 26.09960 | 329 ft | 59 kts | 84° |
| 2026-05-05 20:11 | 44.56671 | 26.10423 | 330 ft | 41 kts | 84° |
| 2026-05-05 20:11 | 44.56690 | 26.10666 | 325 ft | 12 kts | 84° |
| 2026-05-05 20:11 | 44.56717 | 26.10747 | 327 ft | 7 kts | 38° |
| 2026-05-05 20:12 | 44.56765 | 26.10762 | 325 ft | 9 kts | 1° |
| 2026-05-05 20:12 | 44.56840 | 26.10753 | 326 ft | 13 kts | 355° |
| 2026-05-05 20:12 | 44.56931 | 26.10740 | 327 ft | 12 kts | 353° |
| 2026-05-05 20:12 | 44.57003 | 26.10700 | 326 ft | 10 kts | 321° |
| 2026-05-05 20:13 | 44.57041 | 26.10620 | 326 ft | 9 kts | 300° |
| 2026-05-05 20:13 | 44.57062 | 26.10536 | 326 ft | 10 kts | 278° |
| 2026-05-05 20:13 | 44.57060 | 26.10417 | 329 ft | 14 kts | 263° |
| 2026-05-05 20:13 | 44.57048 | 26.10261 | 326 ft | 18 kts | 264° |
| 2026-05-05 20:14 | 44.57034 | 26.10066 | 327 ft | 22 kts | 264° |
| 2026-05-05 20:14 | 44.57017 | 26.09866 | 330 ft | 20 kts | 263° |
| 2026-05-05 20:14 | 44.57004 | 26.09683 | 326 ft | 18 kts | 264° |
| 2026-05-05 20:14 | 44.56988 | 26.09496 | 327 ft | 21 kts | 263° |
| 2026-05-05 20:15 | 44.56971 | 26.09292 | 327 ft | 21 kts | 264° |
| 2026-05-05 20:15 | 44.56957 | 26.09100 | 330 ft | 20 kts | 265° |
| 2026-05-05 20:15 | 44.56942 | 26.08893 | 328 ft | 21 kts | 265° |
| 2026-05-05 20:15 | 44.56928 | 26.08700 | 329 ft | 17 kts | 264° |
| 2026-05-05 20:16 | 44.56915 | 26.08578 | 327 ft | 11 kts | 251° |
| 2026-05-05 20:16 | 44.56894 | 26.08472 | 328 ft | 11 kts | 265° |
| 2026-05-05 20:16 | 44.56941 | 26.08399 | 329 ft | 11 kts | 347° |
| 2026-05-05 20:16 | 44.57014 | 26.08388 | 326 ft | 10 kts | 354° |
| 2026-05-05 20:17 | 44.57074 | 26.08379 | 325 ft | 7 kts | 354° |
| 2026-05-05 20:17 | 44.57090 | 26.08366 | 327 ft | 2 kts | 311° |
| 2026-05-05 20:17 | 44.57093 | 26.08342 | 328 ft | 4 kts | 274° |
| 2026-05-05 20:17 | 44.57092 | 26.08300 | 326 ft | 5 kts | 269° |
| 2026-05-05 20:18 | 44.57089 | 26.08268 | 327 ft | 2 kts | 262° |
| 2026-05-05 20:18 | 44.57088 | 26.08263 | 327 ft | 0 kts | 262° |